Time;durP1;ratioP1;P1;durP2;ratioP2;P2;SDS_P1;SDS_P2;PMS_P1;PMS_P2;Temp;Humidity;BMP_temperature;BMP_pressure;BME280_temperature;BME280_humidity;BME280_pressure;Samples;Min_cycle;Max_cycle;Signal;HPM_P1;HPM_P2
2023/08/21 00:00:40;;;;;;;8.82;5.70;;;;;;;26.50;68.46;100383.31;4892081;28;20075;-89
2023/08/21 00:03:07;;;;;;;6.95;5.70;;;;;;;26.47;68.48;100381.88;4922557;28;20127;-89
2023/08/21 00:05:34;;;;;;;7.88;6.70;;;;;;;26.46;68.28;100380.25;4894183;28;20053;-89
2023/08/21 00:08:01;;;;;;;7.78;5.60;;;;;;;26.47;68.21;100384.63;4879510;29;20580;-90
2023/08/21 00:10:30;;;;;;;11.55;5.85;;;;;;;26.38;68.67;100381.38;4909909;28;20127;-90
2023/08/21 00:12:56;;;;;;;10.32;5.90;;;;;;;26.38;68.56;100380.50;4903150;29;20049;-90
2023/08/21 00:15:23;;;;;;;8.90;5.93;;;;;;;26.38;68.31;100377.78;4909554;29;20108;-89
2023/08/21 00:17:50;;;;;;;9.48;6.18;;;;;;;26.35;68.50;100384.53;4899667;29;20052;-90
2023/08/21 00:20:17;;;;;;;9.13;5.90;;;;;;;26.34;68.53;100379.31;4892302;28;20484;-90
2023/08/21 00:22:44;;;;;;;7.53;5.65;;;;;;;26.37;68.32;100376.97;4907947;29;20055;-90
2023/08/21 00:25:10;;;;;;;8.45;6.18;;;;;;;26.34;68.11;100377.44;4907092;28;20159;-90
2023/08/21 00:27:37;;;;;;;11.63;7.18;;;;;;;26.41;67.47;100377.38;4891595;28;20055;-91
2023/08/21 00:30:04;;;;;;;9.57;6.20;;;;;;;26.38;67.62;100375.06;4890832;29;20063;-90
2023/08/21 00:32:31;;;;;;;9.43;6.88;;;;;;;26.40;67.53;100381.13;4873005;29;20056;-91
2023/08/21 00:34:58;;;;;;;9.05;6.90;;;;;;;26.32;67.61;100382.25;4890370;29;20060;-91
2023/08/21 00:37:25;;;;;;;11.02;6.72;;;;;;;26.28;68.29;100377.47;4875175;29;20434;-90
2023/08/21 00:39:52;;;;;;;9.05;5.95;;;;;;;26.29;68.16;100382.72;4885688;29;20059;-90
2023/08/21 00:42:19;;;;;;;9.65;6.30;;;;;;;26.28;68.10;100378.34;4889282;29;20049;-90
2023/08/21 00:44:45;;;;;;;10.48;6.57;;;;;;;26.23;68.24;100380.06;4860850;29;20425;-91
2023/08/21 00:47:12;;;;;;;7.43;6.20;;;;;;;26.25;67.94;100375.22;4903930;29;20048;-89
2023/08/21 00:49:39;;;;;;;10.45;5.80;;;;;;;26.22;67.89;100370.22;4890195;29;20056;-89
2023/08/21 00:52:11;;;;;;;11.70;6.65;;;;;;;26.14;67.88;100374.09;4915715;28;20076;-90
2023/08/21 00:54:38;;;;;;;9.03;6.47;;;;;;;26.16;68.26;100378.25;4906149;29;20056;-89
2023/08/21 00:57:05;;;;;;;12.07;7.00;;;;;;;26.16;67.81;100378.25;4905638;29;20052;-89
2023/08/21 00:59:32;;;;;;;7.85;6.05;;;;;;;26.17;67.33;100371.72;4894337;29;20157;-89
2023/08/21 01:01:59;;;;;;;11.40;6.85;;;;;;;26.12;67.83;100368.84;4904258;29;20088;-88
2023/08/21 01:04:26;;;;;;;8.57;5.93;;;;;;;26.13;67.64;100373.25;4915110;28;20108;-89
2023/08/21 01:06:53;;;;;;;9.77;6.82;;;;;;;26.13;67.66;100370.53;4900700;29;20056;-89
2023/08/21 01:09:27;;;;;;;10.63;6.53;;;;;;;26.08;67.66;100369.53;4891264;29;20078;-89
2023/08/21 01:12:23;;;;;;;8.73;6.50;;;;;;;25.96;68.14;100367.53;4908760;29;20048;-89
2023/08/21 01:15:03;;;;;;;10.35;6.22;;;;;;;25.97;68.27;100368.38;4890334;29;20062;-88
2023/08/21 01:17:30;;;;;;;10.43;6.50;;;;;;;26.03;68.31;100372.94;4903580;28;20049;-90
2023/08/21 01:19:58;;;;;;;9.98;6.30;;;;;;;26.00;68.18;100376.09;4886769;29;20496;-90
2023/08/21 01:22:38;;;;;;;8.25;6.70;;;;;;;25.98;68.24;100373.59;4893471;29;20063;-90
2023/08/21 01:25:07;;;;;;;12.05;6.28;;;;;;;25.98;68.10;100373.59;4906224;29;20056;-89
2023/08/21 01:27:34;;;;;;;9.45;6.85;;;;;;;26.00;67.46;100370.66;4893119;29;20560;-89
2023/08/21 01:30:03;;;;;;;8.52;6.07;;;;;;;26.04;67.13;100377.31;4900195;29;20139;-89
2023/08/21 01:32:42;;;;;;;8.68;6.70;;;;;;;25.89;67.45;100377.66;4895915;28;20052;-90
2023/08/21 01:35:10;;;;;;;7.20;6.25;;;;;;;25.96;67.53;100383.88;4910924;28;20044;-90
2023/08/21 01:37:37;;;;;;;9.32;6.45;;;;;;;25.91;67.44;100378.28;4908400;28;20097;-90
2023/08/21 01:40:05;;;;;;;10.35;6.40;;;;;;;25.94;67.28;100385.16;4929562;28;20425;-89
2023/08/21 01:42:32;;;;;;;7.35;6.60;;;;;;;25.90;67.22;100382.06;4882955;29;20108;-90
2023/08/21 01:44:59;;;;;;;11.02;6.63;;;;;;;25.89;66.95;100385.00;4913954;29;20124;-89
2023/08/21 01:47:27;;;;;;;8.90;6.95;;;;;;;25.92;66.94;100384.53;4912873;28;20054;-89
2023/08/21 01:49:54;;;;;;;8.45;6.43;;;;;;;25.87;67.47;100381.66;4888660;29;20528;-89
2023/08/21 01:52:21;;;;;;;10.98;6.45;;;;;;;25.85;67.16;100376.47;4905720;29;20064;-90
2023/08/21 01:54:51;;;;;;;9.65;6.13;;;;;;;25.82;67.52;100376.84;4923032;28;20105;-90
2023/08/21 01:57:18;;;;;;;8.93;6.60;;;;;;;25.82;67.55;100378.75;4924384;28;20052;-91
2023/08/21 01:59:45;;;;;;;8.65;6.65;;;;;;;25.83;67.75;100383.16;4892419;29;20078;-90
2023/08/21 02:02:11;;;;;;;11.10;6.38;;;;;;;25.77;67.78;100385.69;4908443;29;20053;-90
2023/08/21 02:04:38;;;;;;;7.05;5.95;;;;;;;25.77;67.60;100390.28;4902053;29;20040;-90
2023/08/21 02:07:05;;;;;;;8.27;5.82;;;;;;;25.74;67.86;100388.00;4891818;28;20048;-89
2023/08/21 02:09:32;;;;;;;8.77;6.28;;;;;;;25.69;68.07;100387.84;4904331;29;20047;-90
2023/08/21 02:11:59;;;;;;;9.40;6.03;;;;;;;25.67;68.12;100388.09;4906175;29;20060;-90
2023/08/21 02:14:25;;;;;;;6.47;5.78;;;;;;;25.65;68.23;100389.38;4889784;29;20098;-89
2023/08/21 02:16:52;;;;;;;8.50;6.35;;;;;;;25.63;68.21;100392.28;4879101;29;20132;-90
2023/08/21 02:19:19;;;;;;;8.48;6.30;;;;;;;25.63;68.25;100392.28;4876465;29;20124;-90
2023/08/21 02:21:48;;;;;;;10.15;6.10;;;;;;;25.59;68.21;100388.34;4891259;28;20119;-90
2023/08/21 02:24:15;;;;;;;7.28;6.05;;;;;;;25.55;68.04;100385.25;4909881;29;20541;-90
2023/08/21 02:26:45;;;;;;;7.95;6.30;;;;;;;25.59;68.13;100390.22;4910098;28;20143;-89
2023/08/21 02:29:12;;;;;;;6.60;5.57;;;;;;;25.62;67.99;100387.91;4909685;28;20048;-90
2023/08/21 02:31:39;;;;;;;9.63;5.85;;;;;;;25.59;68.10;100390.22;4891998;28;20041;-89
2023/08/21 02:34:06;;;;;;;10.40;7.13;;;;;;;25.54;68.39;100391.75;4909581;28;20051;-90
2023/08/21 02:36:33;;;;;;;9.18;6.30;;;;;;;25.52;67.82;100399.28;4925248;28;20425;-89
2023/08/21 02:38:59;;;;;;;9.98;5.72;;;;;;;25.54;67.74;100391.75;4891438;29;20473;-90
2023/08/21 02:41:26;;;;;;;10.65;6.00;;;;;;;25.63;67.38;100396.91;4892118;29;20433;-89
2023/08/21 02:43:53;;;;;;;12.15;6.35;;;;;;;25.63;67.33;100389.56;4908145;28;20048;-90
2023/08/21 02:46:20;;;;;;;8.35;5.78;;;;;;;25.67;66.87;100396.25;4892588;28;20045;-89
2023/08/21 02:48:47;;;;;;;11.02;6.45;;;;;;;25.66;67.05;100400.00;4907439;28;20040;-90
2023/08/21 02:51:14;;;;;;;10.32;6.80;;;;;;;25.63;66.72;100388.75;4921802;29;20380;-89
2023/08/21 02:53:41;;;;;;;7.43;5.65;;;;;;;25.62;67.00;100389.78;4915133;29;20048;-90
2023/08/21 02:56:07;;;;;;;12.18;6.55;;;;;;;25.66;66.95;100400.00;4885262;29;20374;-90
2023/08/21 02:58:34;;;;;;;9.90;6.07;;;;;;;25.58;67.22;100394.84;4895265;28;20068;-90
2023/08/21 03:01:01;;;;;;;8.82;6.13;;;;;;;25.55;67.41;100396.13;4896841;28;20434;-89
2023/08/21 03:03:28;;;;;;;9.38;6.28;;;;;;;25.51;67.36;100385.88;4886566;28;20144;-90
2023/08/21 03:05:55;;;;;;;6.57;5.90;;;;;;;25.44;67.90;100383.25;4892971;28;20044;-90
2023/08/21 03:08:22;;;;;;;7.47;6.43;;;;;;;25.47;67.83;100395.56;4893395;29;20504;-90
2023/08/21 03:10:49;;;;;;;8.77;6.63;;;;;;;25.48;67.67;100389.06;4908088;28;20036;-91
2023/08/21 03:13:16;;;;;;;7.47;5.72;;;;;;;25.49;67.83;100382.56;4892645;28;20064;-91
2023/08/21 03:15:46;;;;;;;8.93;6.70;;;;;;;25.47;68.13;100387.41;4899423;29;20072;-90
2023/08/21 03:18:13;;;;;;;8.40;6.75;;;;;;;25.43;68.06;100381.56;4908221;28;20389;-89
2023/08/21 03:20:45;;;;;;;7.97;5.80;;;;;;;25.37;68.05;100392.50;4892085;29;20048;-87
2023/08/21 03:23:12;;;;;;;8.70;5.88;;;;;;;25.42;68.06;100384.50;4898353;28;20048;-88
2023/08/21 03:25:39;;;;;;;8.63;6.63;;;;;;;25.39;68.09;100385.78;4906375;29;20063;-88
2023/08/21 03:28:06;;;;;;;7.88;6.07;;;;;;;25.38;67.99;100389.53;4891279;29;20065;-89
2023/08/21 03:30:33;;;;;;;8.38;6.10;;;;;;;25.36;68.15;100390.81;4897303;28;20058;-87
2023/08/21 03:33:00;;;;;;;10.02;6.47;;;;;;;25.31;68.13;100389.56;4889133;29;20120;-89
2023/08/21 03:35:27;;;;;;;10.55;6.00;;;;;;;25.32;68.39;100391.25;4905553;29;20056;-89
2023/08/21 03:37:54;;;;;;;9.30;6.07;;;;;;;25.27;68.14;100387.53;4893998;29;20055;-88
2023/08/21 03:40:22;;;;;;;8.40;5.38;;;;;;;25.26;68.50;100383.97;4906302;28;20362;-90
2023/08/21 03:42:51;;;;;;;12.82;6.38;;;;;;;25.24;68.60;100383.38;4890980;29;20461;-88
2023/08/21 03:45:20;;;;;;;8.75;6.88;;;;;;;25.25;68.56;100389.63;4874912;29;20704;-89
2023/08/21 03:47:46;;;;;;;9.05;6.80;;;;;;;25.21;68.65;100391.94;4909980;28;20072;-89
2023/08/21 03:50:18;;;;;;;8.43;6.15;;;;;;;25.19;68.94;100388.63;4892867;28;20365;-89
2023/08/21 03:52:45;;;;;;;9.63;6.22;;;;;;;25.23;68.47;100389.00;4905618;29;20593;-91
2023/08/21 03:55:12;;;;;;;7.85;6.97;;;;;;;25.19;68.79;100394.06;4905426;29;20048;-91
2023/08/21 03:57:39;;;;;;;9.25;6.03;;;;;;;25.17;68.80;100389.91;4893025;28;20131;-88
2023/08/21 04:00:07;;;;;;;8.77;6.00;;;;;;;25.20;68.55;100387.56;4910897;29;20489;-88
2023/08/21 04:02:41;;;;;;;8.70;6.18;;;;;;;25.19;68.87;100393.19;4874571;29;20464;-77
2023/08/21 04:05:07;;;;;;;9.55;5.97;;;;;;;25.18;68.89;100396.97;4918963;29;20048;-77
2023/08/21 04:07:34;;;;;;;10.05;5.88;;;;;;;25.16;68.97;100388.19;4918900;28;20076;-77
2023/08/21 04:10:01;;;;;;;9.90;5.90;;;;;;;25.15;68.82;100391.97;4876080;29;20086;-76
2023/08/21 04:12:28;;;;;;;10.82;6.63;;;;;;;25.15;68.78;100397.41;4901075;29;20056;-76
2023/08/21 04:14:54;;;;;;;9.10;5.95;;;;;;;25.12;68.97;100404.94;4905257;29;20040;-89
2023/08/21 04:17:22;;;;;;;7.93;6.25;;;;;;;25.10;69.07;100401.59;4888998;29;20076;-94
2023/08/21 04:19:50;;;;;;;7.03;6.13;;;;;;;25.08;68.98;100400.97;4904517;29;20057;-92
2023/08/21 04:22:17;;;;;;;11.48;6.45;;;;;;;25.07;68.85;100402.03;4890197;29;20067;-94
2023/08/21 04:24:43;;;;;;;8.98;6.75;;;;;;;25.09;68.66;100401.81;4880505;29;20040;-95
2023/08/21 04:27:10;;;;;;;9.32;6.32;;;;;;;25.07;68.35;100404.75;4876294;29;20071;-93
2023/08/21 04:29:38;;;;;;;12.10;7.00;;;;;;;25.10;68.42;100407.03;4906813;29;20048;-93
2023/08/21 04:32:06;;;;;;;8.95;6.40;;;;;;;25.09;68.36;100409.97;4892568;29;20040;-93
2023/08/21 04:34:33;;;;;;;8.73;6.70;;;;;;;25.05;68.57;100404.13;4902797;29;20481;-94
2023/08/21 04:37:00;;;;;;;11.82;6.45;;;;;;;25.06;68.29;100411.25;4859166;28;20051;-92
2023/08/21 04:39:27;;;;;;;10.68;6.05;;;;;;;24.99;68.21;100405.00;4874931;29;20127;-94
2023/08/21 04:41:54;;;;;;;11.05;6.70;;;;;;;25.02;68.38;100412.72;4853164;29;20045;-93
2023/08/21 04:44:21;;;;;;;12.95;6.70;;;;;;;25.05;68.49;100416.88;4888805;29;20049;-92
2023/08/21 04:46:52;;;;;;;13.55;6.78;;;;;;;25.04;68.30;100418.78;4886170;29;20049;-93
2023/08/21 04:49:19;;;;;;;9.23;6.82;;;;;;;25.05;68.32;100417.72;4893364;29;20048;-93
2023/08/21 04:51:46;;;;;;;9.63;6.25;;;;;;;25.05;68.70;100414.16;4889601;29;20059;-93
2023/08/21 04:54:12;;;;;;;11.10;6.22;;;;;;;25.02;68.38;100418.16;4905413;29;20049;-93
2023/08/21 04:56:39;;;;;;;18.77;7.20;;;;;;;25.00;68.50;100422.97;4895322;29;20044;-92
2023/08/21 04:59:09;;;;;;;15.30;7.32;;;;;;;25.02;68.34;100418.16;4876144;29;20083;-93
2023/08/21 05:01:36;;;;;;;10.23;6.88;;;;;;;25.08;68.21;100422.72;4903666;28;20052;-92
2023/08/21 05:04:03;;;;;;;13.20;7.78;;;;;;;25.09;68.04;100415.41;4869257;29;20056;-92
2023/08/21 05:06:30;;;;;;;10.55;6.47;;;;;;;25.06;67.95;100421.25;4896873;29;20045;-93
2023/08/21 05:08:57;;;;;;;9.45;6.80;;;;;;;25.12;67.72;100426.66;4908038;29;20413;-94
2023/08/21 05:11:25;;;;;;;13.52;7.30;;;;;;;25.09;68.15;100426.28;4915670;28;20067;-92
2023/08/21 05:13:52;;;;;;;10.32;6.88;;;;;;;25.10;68.17;100436.09;4884500;29;20049;-92
2023/08/21 05:16:21;;;;;;;10.45;7.30;;;;;;;25.16;67.85;100428.94;4891529;29;20052;-93
2023/08/21 05:18:48;;;;;;;12.18;7.22;;;;;;;25.13;67.66;100436.47;4908791;29;20049;-94
2023/08/21 05:21:16;;;;;;;10.13;6.88;;;;;;;25.17;67.75;100431.50;4901855;29;20060;-95
2023/08/21 05:23:43;;;;;;;11.35;7.68;;;;;;;25.17;68.03;100427.94;4893584;29;20135;-93
2023/08/21 05:26:10;;;;;;;10.88;7.28;;;;;;;25.14;68.04;100429.19;4893096;29;20080;-94
2023/08/21 05:28:37;;;;;;;10.32;7.13;;;;;;;25.14;68.29;100434.63;4910600;29;20132;-93
2023/08/21 05:31:03;;;;;;;10.15;6.57;;;;;;;25.22;67.97;100442.53;4902394;29;20100;-91
2023/08/21 05:33:43;;;;;;;11.23;7.32;;;;;;;25.23;67.68;100440.66;4913525;28;20052;-93
2023/08/21 05:36:10;;;;;;;11.93;6.78;;;;;;;25.24;68.09;100437.72;4905753;29;20056;-93
2023/08/21 05:38:37;;;;;;;13.20;7.13;;;;;;;25.22;68.00;100439.00;4883437;28;20048;-92
2023/08/21 05:41:04;;;;;;;11.90;7.35;;;;;;;25.18;68.25;100435.88;4912920;29;20053;-94
2023/08/21 05:43:31;;;;;;;12.88;7.20;;;;;;;25.25;67.91;100441.28;4907775;29;20052;-93
2023/08/21 05:45:58;;;;;;;11.93;6.95;;;;;;;25.28;68.25;100447.09;4898761;29;20079;-93
2023/08/21 05:48:25;;;;;;;9.98;6.95;;;;;;;25.31;67.89;100438.50;4892181;29;20492;-93
2023/08/21 05:50:52;;;;;;;9.10;7.25;;;;;;;25.31;68.12;100441.22;4894574;29;20100;-91
2023/08/21 05:53:19;;;;;;;11.52;6.82;;;;;;;25.36;68.03;100440.56;4898603;29;20052;-92
2023/08/21 05:55:46;;;;;;;11.52;6.68;;;;;;;25.39;67.79;100450.19;4899112;28;20085;-92
2023/08/21 05:58:13;;;;;;;11.07;6.95;;;;;;;25.40;68.09;100449.16;4895139;29;20045;-91
2023/08/21 06:00:42;;;;;;;13.20;7.30;;;;;;;25.40;68.02;100449.97;4911800;29;20140;-92
2023/08/21 06:03:09;;;;;;;11.18;6.75;;;;;;;25.40;67.92;100443.72;4914093;28;20119;-92
2023/08/21 06:05:58;;;;;;;11.38;7.07;;;;;;;25.42;67.88;100452.47;4883910;29;20161;-93
2023/08/21 06:08:26;;;;;;;12.15;7.28;;;;;;;25.40;67.88;100451.88;4883060;28;20044;-92
2023/08/21 06:10:53;;;;;;;11.27;7.90;;;;;;;25.45;68.08;100461.03;4898089;28;20040;-92
2023/08/21 06:13:20;;;;;;;16.17;7.70;;;;;;;25.47;67.80;100450.78;4877052;29;20485;-92
2023/08/21 06:15:50;;;;;;;14.93;7.95;;;;;;;25.47;68.02;100456.22;4908522;28;20064;-92
2023/08/21 06:18:20;;;;;;;10.77;6.60;;;;;;;25.53;68.36;100455.31;4901487;28;20084;-92
2023/08/21 06:20:48;;;;;;;9.63;6.90;;;;;;;25.57;68.37;100450.28;4901286;28;20048;-90
2023/08/21 06:23:15;;;;;;;12.07;6.95;;;;;;;25.56;68.53;100451.34;4902245;28;20468;-91
2023/08/21 06:25:44;;;;;;;12.25;7.40;;;;;;;25.61;68.29;100451.50;4891887;29;20060;-93
2023/08/21 06:28:11;;;;;;;13.32;7.90;;;;;;;25.63;68.23;100456.75;4906391;29;20052;-93
2023/08/21 06:30:38;;;;;;;10.55;7.25;;;;;;;25.69;68.44;100466.72;4890668;28;20079;-93
2023/08/21 06:33:05;;;;;;;13.73;7.10;;;;;;;25.67;68.55;100460.66;4892049;29;20040;-92
2023/08/21 06:35:36;;;;;;;11.70;6.80;;;;;;;25.70;68.53;100466.53;4879602;29;20056;-93
2023/08/21 06:38:03;;;;;;;15.30;7.93;;;;;;;25.67;68.62;100457.94;4859623;29;20044;-95
2023/08/21 06:40:31;;;;;;;10.15;7.32;;;;;;;25.68;68.63;100465.91;4893678;28;20060;-93
2023/08/21 06:42:58;;;;;;;12.70;7.35;;;;;;;25.68;68.80;100465.06;4897524;29;20067;-93
2023/08/21 06:45:30;;;;;;;12.18;7.72;;;;;;;25.74;68.91;100470.44;4880497;29;20044;-93
2023/08/21 06:47:58;;;;;;;12.20;7.45;;;;;;;25.73;68.60;100470.69;4866158;29;20064;-94
2023/08/21 06:50:25;;;;;;;11.85;7.53;;;;;;;25.71;69.01;100460.00;4897447;28;20511;-94
2023/08/21 06:52:52;;;;;;;11.77;8.05;;;;;;;25.76;68.83;100471.06;4889229;29;20044;-94
2023/08/21 06:55:19;;;;;;;12.70;8.00;;;;;;;25.78;69.04;100468.13;4883222;28;20048;-94
2023/08/21 06:57:46;;;;;;;15.30;7.68;;;;;;;25.81;69.51;100467.69;4895719;29;20388;-94
2023/08/21 07:00:13;;;;;;;7.97;7.18;;;;;;;25.82;69.43;100472.06;4876945;29;20045;-95
2023/08/21 07:02:40;;;;;;;11.88;7.32;;;;;;;25.86;69.02;100461.63;4906505;29;20064;-94
2023/08/21 07:05:08;;;;;;;12.02;8.02;;;;;;;25.87;69.42;100455.94;4894423;29;20421;-95
2023/08/21 07:07:38;;;;;;;13.60;8.52;;;;;;;25.88;69.34;100462.25;4888778;29;20045;-94
2023/08/21 07:10:05;;;;;;;14.77;8.70;;;;;;;25.93;69.68;100465.97;4878819;29;20055;-95
2023/08/21 07:12:32;;;;;;;13.32;7.80;;;;;;;25.94;69.48;100461.34;4882381;29;20451;-94
2023/08/21 07:14:58;;;;;;;13.88;7.25;;;;;;;25.98;69.49;100474.28;4904004;29;20519;-95
2023/08/21 07:17:26;;;;;;;11.68;8.27;;;;;;;25.96;69.32;100464.69;4876910;28;20048;-94
2023/08/21 07:19:53;;;;;;;10.52;7.82;;;;;;;26.00;69.56;100460.44;4904715;29;20051;-94
2023/08/21 07:22:20;;;;;;;9.43;7.70;;;;;;;26.03;69.61;100465.47;4875252;29;20044;-94
2023/08/21 07:24:48;;;;;;;10.85;8.25;;;;;;;26.07;69.52;100463.94;4890078;29;20485;-94
2023/08/21 07:27:15;;;;;;;12.25;8.63;;;;;;;26.12;69.87;100471.47;4905223;29;20044;-94
2023/08/21 07:29:42;;;;;;;13.02;8.88;;;;;;;26.12;70.13;100472.28;4878146;28;20055;-94
2023/08/21 07:32:08;;;;;;;15.18;9.57;;;;;;;26.16;70.06;100462.63;4894281;28;20067;-93
2023/08/21 07:34:35;;;;;;;10.88;9.00;;;;;;;26.14;70.44;100463.91;4875970;29;20454;-95
2023/08/21 07:37:02;;;;;;;9.40;8.50;;;;;;;26.24;70.19;100477.03;4891485;29;20044;-94
2023/08/21 07:39:29;;;;;;;12.30;8.80;;;;;;;26.24;70.85;100468.84;4898727;29;20346;-94
2023/08/21 07:41:56;;;;;;;12.45;9.65;;;;;;;26.26;70.62;100469.47;4913234;29;20052;-94
2023/08/21 07:44:23;;;;;;;13.75;9.93;;;;;;;26.28;70.90;100467.31;4895283;29;20108;-94
2023/08/21 07:46:50;;;;;;;13.20;9.55;;;;;;;26.32;71.15;100468.56;4890342;29;20092;-93
2023/08/21 07:49:17;;;;;;;16.40;9.57;;;;;;;26.33;71.34;100465.63;4884069;29;22317;-94
2023/08/21 07:51:44;;;;;;;16.95;10.02;;;;;;;26.35;71.17;100465.38;4882791;29;20879;-94
2023/08/21 07:54:11;;;;;;;21.42;12.27;;;;;;;26.37;71.99;100461.38;4865579;29;20056;-93
2023/08/21 07:56:40;;;;;;;16.63;11.07;;;;;;;26.45;71.78;100473.03;4876072;29;20058;-94
2023/08/21 07:59:07;;;;;;;13.70;11.10;;;;;;;26.47;72.17;100470.94;4876117;29;20106;-94
2023/08/21 08:01:34;;;;;;;12.68;10.48;;;;;;;26.51;72.13;100469.41;4873186;29;20048;-94
2023/08/21 08:04:01;;;;;;;11.80;9.85;;;;;;;26.52;72.28;100460.19;4889987;29;20049;-94
2023/08/21 08:06:28;;;;;;;12.77;11.07;;;;;;;26.57;72.34;100463.94;4912246;29;20082;-95
2023/08/21 08:08:55;;;;;;;17.13;12.73;;;;;;;26.57;72.33;100460.38;4880587;28;20047;-94
2023/08/21 08:11:23;;;;;;;16.35;11.07;;;;;;;26.58;72.58;100454.69;4890144;29;20045;-94
2023/08/21 08:13:50;;;;;;;16.65;11.50;;;;;;;26.67;72.89;100465.31;4864103;29;20390;-94
2023/08/21 08:16:17;;;;;;;15.25;10.70;;;;;;;26.70;73.09;100464.84;4879066;28;20044;-94
2023/08/21 08:18:44;;;;;;;17.52;11.93;;;;;;;26.78;72.95;100472.72;4886013;29;20057;-95
2023/08/21 08:21:11;;;;;;;17.90;11.95;;;;;;;26.74;73.16;100458.72;4855008;29;20056;-94
2023/08/21 08:23:39;;;;;;;15.02;10.98;;;;;;;26.77;73.05;100452.81;4880928;29;20068;-96
2023/08/21 08:26:07;;;;;;;13.65;11.05;;;;;;;26.84;73.38;100460.91;4882853;28;20048;-95
2023/08/21 08:28:35;;;;;;;14.48;10.68;;;;;;;26.84;73.53;100450.84;4882078;28;20051;-95
2023/08/21 08:31:02;;;;;;;14.63;10.65;;;;;;;26.87;73.38;100455.03;4853301;28;20062;-95
2023/08/21 08:33:32;;;;;;;13.63;10.10;;;;;;;26.89;73.50;100452.03;4885824;29;20048;-95
2023/08/21 08:35:59;;;;;;;13.82;10.85;;;;;;;26.95;73.66;100459.31;4900356;28;20056;-95
2023/08/21 08:38:29;;;;;;;17.95;11.13;;;;;;;26.97;73.05;100468.94;4865336;29;20048;-93
2023/08/21 08:40:56;;;;;;;15.88;11.98;;;;;;;26.99;73.17;100453.16;4875444;28;20044;-94
2023/08/21 08:43:25;;;;;;;16.02;12.05;;;;;;;27.02;73.35;100460.91;4887974;29;20048;-93
2023/08/21 08:45:52;;;;;;;15.45;12.18;;;;;;;27.06;73.13;100462.09;4908676;28;20055;-93
2023/08/21 08:48:20;;;;;;;15.38;13.02;;;;;;;27.06;72.52;100459.38;4863693;28;20056;-93
2023/08/21 08:50:47;;;;;;;16.08;12.98;;;;;;;27.14;73.64;100460.94;4894603;29;20070;-94
2023/08/21 08:53:21;;;;;;;13.32;11.30;;;;;;;27.14;73.30;100447.31;4894108;29;20060;-95
2023/08/21 08:55:48;;;;;;;17.17;12.68;;;;;;;27.16;73.67;100449.81;4881878;29;20385;-95
2023/08/21 08:58:18;;;;;;;14.50;12.88;;;;;;;27.20;73.04;100456.53;4860870;29;20044;-96
2023/08/21 09:00:46;;;;;;;13.45;12.05;;;;;;;27.20;73.36;100457.34;4879197;29;20045;-95
2023/08/21 09:03:15;;;;;;;13.60;10.82;;;;;;;27.22;72.95;100446.19;4879749;29;20397;-95
2023/08/21 09:05:44;;;;;;;15.32;12.60;;;;;;;27.27;73.42;100451.78;4867585;29;20043;-95
2023/08/21 09:08:12;;;;;;;15.02;12.10;;;;;;;27.28;73.77;100445.28;4867453;29;20051;-94
2023/08/21 09:10:42;;;;;;;13.85;11.40;;;;;;;27.31;73.41;100450.28;4842399;29;20048;-95
2023/08/21 09:13:15;;;;;;;13.70;11.30;;;;;;;27.33;73.66;100441.88;4864336;29;20082;-95
2023/08/21 09:15:47;;;;;;;16.15;12.77;;;;;;;27.35;73.21;100439.72;4860017;29;20096;-93
2023/08/21 09:18:15;;;;;;;18.52;13.35;;;;;;;27.43;73.29;100447.59;4862957;29;20092;-93
2023/08/21 09:20:42;;;;;;;14.68;11.95;;;;;;;27.44;73.28;100435.63;4893537;29;20135;-93
2023/08/21 09:23:14;;;;;;;16.25;13.15;;;;;;;27.45;73.37;100442.72;4881546;29;20040;-93
2023/08/21 09:25:41;;;;;;;15.43;12.93;;;;;;;27.51;73.65;100435.53;4864187;29;20476;-93
2023/08/21 09:28:08;;;;;;;21.27;12.18;;;;;;;27.53;73.18;100430.66;4856199;29;20147;-95
2023/08/21 09:30:54;;;;;;;17.90;12.68;;;;;;;27.48;73.60;100429.47;4859509;29;20139;-94
2023/08/21 09:33:24;;;;;;;17.83;12.40;;;;;;;27.60;73.24;100437.66;4847049;29;20048;-95
2023/08/21 09:35:53;;;;;;;15.40;11.63;;;;;;;27.59;73.13;100422.38;4881902;29;20073;-95
2023/08/21 09:38:21;;;;;;;13.55;11.98;;;;;;;27.61;72.37;100425.72;4893593;29;20069;-95
2023/08/21 09:40:56;;;;;;;11.77;10.52;;;;;;;27.66;71.53;100427.75;4875801;28;20135;-95
2023/08/21 09:43:24;;;;;;;16.45;10.35;;;;;;;27.69;71.87;100421.81;4850091;29;20047;-94
2023/08/21 09:45:57;;;;;;;11.52;9.57;;;;;;;27.70;68.84;100418.84;4851649;29;20103;-95
2023/08/21 09:48:29;;;;;;;11.48;9.40;;;;;;;27.79;68.92;100437.63;4875719;29;20060;-95
2023/08/21 09:50:57;;;;;;;11.40;8.43;;;;;;;27.80;68.41;100426.44;4883780;29;20040;-94
2023/08/21 09:53:26;;;;;;;12.35;9.02;;;;;;;27.81;67.20;100419.09;4871030;29;20048;-95
2023/08/21 09:56:14;;;;;;;11.18;8.77;;;;;;;27.85;67.67;100423.88;4901543;29;20448;-95
2023/08/21 09:58:43;;;;;;;10.30;8.90;;;;;;;27.90;67.67;100423.19;4899975;29;20048;-95
2023/08/21 10:01:13;;;;;;;10.23;8.95;;;;;;;27.91;68.37;100422.94;4911033;28;22725;-96
2023/08/21 10:03:42;;;;;;;11.40;8.32;;;;;;;27.95;67.59;100420.56;4851068;29;21559;-95
2023/08/21 10:06:10;;;;;;;9.68;8.55;;;;;;;27.95;66.35;100420.56;4877173;29;20108;-95
2023/08/21 10:08:42;;;;;;;10.82;8.13;;;;;;;27.97;66.45;100420.34;4881545;29;20049;-95
2023/08/21 10:11:10;;;;;;;10.20;8.77;;;;;;;27.98;66.08;100420.09;4898094;29;20052;-95
2023/08/21 10:13:38;;;;;;;14.25;8.85;;;;;;;28.04;66.00;100424.63;4881534;29;20052;-95
2023/08/21 10:16:07;;;;;;;9.10;8.13;;;;;;;28.05;65.81;100409.88;4881215;29;20072;-94
2023/08/21 10:18:37;;;;;;;10.15;8.40;;;;;;;28.04;66.33;100408.25;4849059;28;20049;-95
2023/08/21 10:21:18;;;;;;;12.90;8.80;;;;;;;28.06;66.19;100421.63;4901307;29;20049;-96
2023/08/21 10:23:48;;;;;;;14.57;9.25;;;;;;;28.09;66.67;100402.06;4862086;29;20089;-96
2023/08/21 10:26:15;;;;;;;10.77;8.75;;;;;;;28.14;65.96;100413.94;4892987;29;20056;-94
2023/08/21 10:29:02;;;;;;;10.95;7.90;;;;;;;28.10;65.83;100410.00;4892043;29;20448;-94
2023/08/21 10:31:40;;;;;;;10.25;8.02;;;;;;;28.19;65.33;100407.78;4880473;29;20426;-93
2023/08/21 10:34:11;;;;;;;11.60;9.10;;;;;;;28.18;64.99;100400.63;4851712;29;20060;-93
2023/08/21 10:36:44;;;;;;;9.73;8.70;;;;;;;28.18;64.89;100402.53;4883432;29;20066;-94
2023/08/21 10:39:18;;;;;;;10.32;8.02;;;;;;;28.15;64.20;100395.66;4909336;28;20127;-94
2023/08/21 10:42:06;;;;;;;10.30;8.48;;;;;;;28.17;63.68;100398.16;4860665;28;20052;-93
2023/08/21 10:44:59;;;;;;;13.25;8.98;;;;;;;28.09;63.30;100389.25;4899992;29;20045;-94
2023/08/21 10:47:34;;;;;;;12.10;8.68;;;;;;;28.11;63.52;100395.31;4880486;29;20454;-94
2023/08/21 10:50:06;;;;;;;10.88;8.93;;;;;;;28.13;65.15;100386.84;4903662;29;20473;-94
2023/08/21 10:52:42;;;;;;;11.18;8.45;;;;;;;28.12;65.24;100382.47;4908171;29;20493;-94
2023/08/21 10:55:10;;;;;;;11.07;8.77;;;;;;;28.17;65.26;100388.06;4866636;29;20045;-94
2023/08/21 10:57:38;;;;;;;10.23;9.07;;;;;;;28.19;65.02;100385.94;4852080;29;20048;-94
2023/08/21 11:00:11;;;;;;;10.50;8.95;;;;;;;28.19;65.15;100383.19;4889224;28;20047;-94
2023/08/21 11:02:43;;;;;;;11.48;9.18;;;;;;;28.17;64.05;100374.41;4890115;29;20439;-94
2023/08/21 11:05:12;;;;;;;12.95;8.27;;;;;;;28.25;63.97;100379.50;4877132;28;20060;-94
2023/08/21 11:07:43;;;;;;;11.77;9.70;;;;;;;28.26;63.35;100388.50;4864961;29;20052;-94
2023/08/21 11:10:16;;;;;;;10.43;8.38;;;;;;;28.24;63.14;100375.13;4876392;29;20438;-93
2023/08/21 11:12:55;;;;;;;10.90;8.95;;;;;;;28.29;63.56;100377.97;4886566;29;20054;-93
2023/08/21 11:15:24;;;;;;;13.55;8.32;;;;;;;28.33;63.23;100379.13;4890757;29;20052;-94
2023/08/21 11:17:53;;;;;;;9.30;8.32;;;;;;;28.39;63.17;100379.22;4875697;29;20048;-94
2023/08/21 11:20:20;;;;;;;14.55;8.38;;;;;;;28.43;63.53;100377.69;4901588;29;20075;-94
2023/08/21 11:22:47;;;;;;;16.40;8.88;;;;;;;28.46;62.43;100379.97;4909086;29;20056;-94
2023/08/21 11:25:16;;;;;;;11.43;8.88;;;;;;;28.51;62.12;100380.06;4894325;29;20049;-94